Linate Airport LIML

Flugplatz Daten

Name: Linate Airport

Ident: LIML

Lat: 45,44509888

Long: 9,276740074

Platzhöhe: 353 ft

IataCode: LIN

City: Milan

Homepage: http://www.sea-aeroportimilano.it/en/

Metar

2021/08/05 12:50
LIML 051250Z 25006KT 190V290 CAVOK 28/16 Q1006 NOSIG

Taf

2021/08/05 12:00
TAF LIML 051100Z 0512/0612 26010KT 9999 FEW040
BECMG 0514/0516 VRB05KT
Gewünschte Webcam nicht vorhanden? Dann fügen Sie eine hinzu. Sie wird dann so schnell wie möglich freigeschaltet
Url: Title: